createdAt,value
2022-12-29T00:01:39.816Z,98751.88
2022-12-29T00:04:11.387Z,98766.59
2022-12-29T00:06:41.009Z,98769.78
2022-12-29T00:09:07.516Z,98767.72
2022-12-29T00:11:34.420Z,98756.03
2022-12-29T00:14:25.672Z,98758.41
2022-12-29T00:16:52.467Z,98753.66
2022-12-29T00:19:37.612Z,98745.03
2022-12-29T00:22:22.846Z,98753.41
2022-12-29T00:25:01.050Z,98767.28
2022-12-29T00:27:48.173Z,98761.16
2022-12-29T00:30:38.977Z,98753.53
2022-12-29T00:33:35.275Z,98748.66
2022-12-29T00:36:07.122Z,98753.66
2022-12-29T00:38:55.545Z,98738.41
2022-12-29T00:41:40.751Z,98733.66
2022-12-29T00:44:10.948Z,98731.88
2022-12-29T00:46:39.036Z,98731.03
2022-12-29T00:49:25.532Z,98721.00
2022-12-29T00:51:52.375Z,98739.78
2022-12-29T00:54:19.234Z,98701.59
2022-12-29T00:56:50.117Z,98734.09
2022-12-29T00:59:18.115Z,98722.13
2022-12-29T01:01:46.349Z,98726.59
2022-12-29T01:04:13.947Z,98713.66
2022-12-29T01:06:41.818Z,98714.47
2022-12-29T01:09:28.852Z,98704.06
2022-12-29T01:11:56.068Z,98706.00
2022-12-29T01:14:23.206Z,98699.91
2022-12-29T01:16:49.657Z,98712.69
2022-12-29T01:19:18.364Z,98703.38
2022-12-29T01:21:45.327Z,98704.63
2022-12-29T01:24:12.835Z,98701.59
2022-12-29T01:26:39.182Z,98711.13
2022-12-29T01:29:05.620Z,98711.44
2022-12-29T01:31:32.300Z,98707.53
2022-12-29T01:33:58.832Z,98698.63
2022-12-29T01:36:26.017Z,98704.50
2022-12-29T01:38:52.535Z,98701.00
2022-12-29T01:41:20.835Z,98711.56
2022-12-29T01:43:50.141Z,98715.44
2022-12-29T01:46:36.671Z,98716.69
2022-12-29T01:49:16.521Z,98707.69
2022-12-29T01:51:53.289Z,98696.16
2022-12-29T01:54:23.380Z,98718.53
2022-12-29T01:56:53.144Z,98712.69
2022-12-29T01:59:23.925Z,98715.44
2022-12-29T02:01:51.331Z,98710.88
2022-12-29T02:04:18.382Z,98702.25
2022-12-29T02:06:52.086Z,98698.22
2022-12-29T02:09:19.389Z,98708.78
2022-12-29T02:11:46.440Z,98698.78
2022-12-29T02:14:14.064Z,98701.97
2022-12-29T02:17:12.398Z,98695.44
2022-12-29T02:20:30.209Z,98676.56
2022-12-29T02:23:16.573Z,98670.31
2022-12-29T02:26:04.296Z,98677.41
2022-12-29T02:28:49.462Z,98666.28
2022-12-29T02:31:45.360Z,98675.19
2022-12-29T02:34:33.957Z,98687.81
2022-12-29T02:37:30.332Z,98683.81
2022-12-29T02:40:05.801Z,98668.63
2022-12-29T02:42:41.076Z,98671.28
2022-12-29T02:45:44.334Z,98668.34
2022-12-29T02:48:19.559Z,98668.78
2022-12-29T02:51:35.579Z,98664.34
2022-12-29T02:54:21.197Z,98645.72
2022-12-29T02:56:48.348Z,98651.00
2022-12-29T02:59:15.172Z,98654.78
2022-12-29T03:02:18.809Z,98649.63
2022-12-29T03:05:07.066Z,98650.72
2022-12-29T03:07:48.491Z,98649.88
2022-12-29T03:10:20.971Z,98662.81
2022-12-29T03:13:41.386Z,98657.41
2022-12-29T03:16:16.031Z,98638.94
2022-12-29T03:18:52.614Z,98641.03
2022-12-29T03:21:55.567Z,98643.25
2022-12-29T03:24:28.259Z,98638.78
2022-12-29T03:26:59.297Z,98638.94
2022-12-29T03:29:33.882Z,98630.47
2022-12-29T03:32:03.469Z,98622.97
2022-12-29T03:34:31.876Z,98613.25
2022-12-29T03:37:03.832Z,98620.19
2022-12-29T03:39:30.405Z,98603.22
2022-12-29T03:42:02.489Z,98608.13
2022-12-29T03:44:37.298Z,98606.13
2022-12-29T03:47:04.856Z,98603.50
2022-12-29T03:49:31.582Z,98591.00
2022-12-29T03:51:57.925Z,98596.13
2022-12-29T03:54:28.059Z,98611.16
2022-12-29T03:56:54.416Z,98591.00
2022-12-29T03:59:31.206Z,98585.72
2022-12-29T04:01:57.697Z,98588.09
2022-12-29T04:04:24.512Z,98590.44
2022-12-29T04:06:51.019Z,98583.88
2022-12-29T04:09:17.418Z,98588.78
2022-12-29T04:11:46.770Z,98594.44
2022-12-29T04:14:13.569Z,98605.16
2022-12-29T04:16:40.809Z,98615.13
2022-12-29T04:19:08.841Z,98602.25
2022-12-29T04:21:36.717Z,98590.44
2022-12-29T04:24:07.232Z,98597.09
2022-12-29T04:26:37.772Z,98593.63
2022-12-29T04:29:22.712Z,98593.63
2022-12-29T04:32:05.727Z,98587.59
2022-12-29T04:34:34.751Z,98586.50
2022-12-29T04:37:01.145Z,98587.19
2022-12-29T04:39:28.639Z,98578.69
2022-12-29T04:41:55.302Z,98592.47
2022-12-29T04:44:22.215Z,98582.03
2022-12-29T04:47:01.302Z,98579.53
2022-12-29T04:49:53.561Z,98572.69
2022-12-29T04:52:34.683Z,98580.06
2022-12-29T04:55:02.230Z,98577.28
2022-12-29T04:57:29.160Z,98568.09
2022-12-29T04:59:58.441Z,98570.47
2022-12-29T05:02:25.394Z,98573.63
2022-12-29T05:04:51.953Z,98579.63
2022-12-29T05:07:19.745Z,98570.56
2022-12-29T05:09:48.334Z,98575.75
2022-12-29T05:12:15.241Z,98563.34
2022-12-29T05:14:52.780Z,98572.50
2022-12-29T05:17:19.272Z,98568.50
2022-12-29T05:19:45.663Z,98573.34
2022-12-29T05:22:12.317Z,98571.00
2022-12-29T05:24:39.122Z,98571.84
2022-12-29T05:27:06.182Z,98571.53
2022-12-29T05:29:39.754Z,98575.16
2022-12-29T05:32:06.399Z,98579.06
2022-12-29T05:34:32.881Z,98580.75
2022-12-29T05:36:59.720Z,98576.72
2022-12-29T05:39:26.053Z,98585.88
2022-12-29T05:41:56.664Z,98577.78
2022-12-29T05:44:45.970Z,98576.16
2022-12-29T05:47:18.194Z,98568.09
2022-12-29T05:49:52.478Z,98572.81
2022-12-29T05:52:30.527Z,98570.03
2022-12-29T05:54:57.273Z,98578.34
2022-12-29T05:57:25.669Z,98567.22
2022-12-29T06:00:03.013Z,98575.47
2022-12-29T06:02:29.875Z,98572.66
2022-12-29T06:04:57.239Z,98580.59
2022-12-29T06:07:23.736Z,98583.31
2022-12-29T06:09:50.066Z,98594.75
2022-12-29T06:12:17.053Z,98574.66
2022-12-29T06:14:45.749Z,98587.59
2022-12-29T06:17:12.108Z,98574.41
2022-12-29T06:19:38.578Z,98580.56
2022-12-29T06:22:05.651Z,98576.25
2022-12-29T06:24:34.240Z,98584.25
2022-12-29T06:27:00.645Z,98577.28
2022-12-29T06:29:27.463Z,98576.09
2022-12-29T06:31:58.837Z,98578.19
2022-12-29T06:34:26.190Z,98593.56
2022-12-29T06:36:52.564Z,98585.09
2022-12-29T06:39:19.055Z,98573.00
2022-12-29T06:41:58.924Z,98571.94
2022-12-29T06:44:45.652Z,98571.25
2022-12-29T06:47:12.554Z,98574.75
2022-12-29T06:49:38.917Z,98574.16
2022-12-29T06:52:10.775Z,98559.00
2022-12-29T06:54:38.801Z,98569.50
2022-12-29T06:57:05.095Z,98579.69
2022-12-29T06:59:31.414Z,98575.31
2022-12-29T07:01:57.920Z,98571.84
2022-12-29T07:04:24.619Z,98578.38
2022-12-29T07:06:50.911Z,98582.88
2022-12-29T07:09:17.302Z,98575.91
2022-12-29T07:11:43.620Z,98577.78
2022-12-29T07:14:11.782Z,98562.94
2022-12-29T07:16:38.214Z,98563.50
2022-12-29T07:19:05.092Z,98564.50
2022-12-29T07:21:31.673Z,98568.34
2022-12-29T07:23:57.978Z,98569.34
2022-12-29T07:26:24.337Z,98579.44
2022-12-29T07:28:50.684Z,98568.03
2022-12-29T07:31:20.173Z,98569.28
2022-12-29T07:33:47.097Z,98573.31
2022-12-29T07:36:13.828Z,98573.19
2022-12-29T07:38:41.028Z,98579.69
2022-12-29T07:41:07.454Z,98583.28
2022-12-29T07:43:34.472Z,98574.66
2022-12-29T07:46:55.598Z,98581.25
2022-12-29T07:49:07.962Z,98571.75
2022-12-29T07:51:34.293Z,98579.94
2022-12-29T07:54:01.617Z,98581.78
2022-12-29T07:56:28.896Z,98583.69
2022-12-29T07:58:55.231Z,98600.53
2022-12-29T08:01:24.286Z,98609.16
2022-12-29T08:03:56.859Z,98608.72
2022-12-29T08:06:23.602Z,98629.72
2022-12-29T08:08:50.353Z,98643.34
2022-12-29T08:11:16.653Z,98664.66
2022-12-29T08:13:43.027Z,98677.00
2022-12-29T08:16:09.450Z,98669.56
2022-12-29T08:18:35.809Z,98673.19
2022-12-29T08:21:06.516Z,98677.78
2022-12-29T08:23:32.950Z,98676.91
2022-12-29T08:26:05.107Z,98690.28
2022-12-29T08:28:32.404Z,98682.38
2022-12-29T08:31:00.736Z,98675.03
2022-12-29T08:33:27.784Z,98669.59
2022-12-29T08:36:00.211Z,98672.06
2022-12-29T08:38:27.978Z,98658.88
2022-12-29T08:40:54.302Z,98659.28
2022-12-29T08:43:20.663Z,98647.31
2022-12-29T08:45:46.979Z,98645.66
2022-12-29T08:48:13.295Z,98664.41
2022-12-29T08:50:39.783Z,98671.38
2022-12-29T08:53:06.132Z,98672.66
2022-12-29T08:55:32.485Z,98674.31
2022-12-29T08:57:58.836Z,98674.72
2022-12-29T09:00:26.208Z,98682.63
2022-12-29T09:02:52.834Z,98694.59
2022-12-29T09:05:19.375Z,98683.22
2022-12-29T09:07:45.811Z,98692.22
2022-12-29T09:10:12.362Z,98696.53
2022-12-29T09:12:38.946Z,98701.81
2022-12-29T09:15:06.973Z,98688.19
2022-12-29T09:17:43.314Z,98683.44
2022-12-29T09:20:09.948Z,98686.09
2022-12-29T09:22:36.997Z,98689.41
2022-12-29T09:25:03.803Z,98699.28
2022-12-29T09:27:30.906Z,98702.63
2022-12-29T09:29:57.250Z,98706.13
2022-12-29T09:32:24.034Z,98707.09
2022-12-29T09:34:51.333Z,98717.13
2022-12-29T09:37:17.619Z,98720.41
2022-12-29T09:39:47.752Z,98736.56
2022-12-29T09:42:20.563Z,98738.09
2022-12-29T09:45:18.028Z,98729.06
2022-12-29T09:47:45.789Z,98757.13
2022-12-29T09:50:36.294Z,98751.59
2022-12-29T09:53:32.750Z,98729.06
2022-12-29T09:56:02.428Z,98725.75
2022-12-29T09:58:38.639Z,98732.69
2022-12-29T10:01:08.552Z,98717.13
2022-12-29T10:03:48.002Z,98724.63
2022-12-29T10:06:32.819Z,98717.78
2022-12-29T10:09:16.296Z,98726.53
2022-12-29T10:11:50.732Z,98729.56
2022-12-29T10:14:51.618Z,98742.78
2022-12-29T10:17:55.555Z,98744.47
2022-12-29T10:20:40.479Z,98737.28
2022-12-29T10:23:25.626Z,98721.41
2022-12-29T10:25:56.272Z,98734.75
2022-12-29T10:28:29.799Z,98725.25
2022-12-29T10:31:05.037Z,98731.50
2022-12-29T10:33:42.048Z,98738.28
2022-12-29T10:36:17.098Z,98731.06
2022-12-29T10:38:59.751Z,98728.72
2022-12-29T10:41:34.015Z,98735.97
2022-12-29T10:44:01.579Z,98735.13
2022-12-29T10:46:31.880Z,98731.75
2022-12-29T10:48:58.213Z,98723.72
2022-12-29T10:51:39.357Z,98711.22
2022-12-29T10:54:27.488Z,98742.34
2022-12-29T10:57:19.045Z,98734.03
2022-12-29T10:59:45.526Z,98732.59
2022-12-29T11:02:11.965Z,98740.66
2022-12-29T11:04:56.660Z,98729.56
2022-12-29T11:07:27.348Z,98744.28
2022-12-29T11:09:54.096Z,98743.59
2022-12-29T11:12:32.045Z,98752.78
2022-12-29T11:15:13.135Z,98745.69
2022-12-29T11:17:48.802Z,98745.41
2022-12-29T11:20:39.319Z,98742.06
2022-12-29T11:23:23.664Z,98742.34
2022-12-29T11:26:34.800Z,98763.22
2022-12-29T11:29:04.195Z,98752.09
2022-12-29T11:31:30.601Z,98753.50
2022-12-29T11:33:56.904Z,98750.69
2022-12-29T11:36:25.328Z,98758.47
2022-12-29T11:38:56.677Z,98754.59
2022-12-29T11:41:30.073Z,98751.38
2022-12-29T11:44:03.398Z,98764.44
2022-12-29T11:46:36.768Z,98776.28
2022-12-29T11:49:05.007Z,98768.38
2022-12-29T11:51:38.870Z,98759.84
2022-12-29T11:54:06.394Z,98764.16
2022-12-29T11:56:42.165Z,98758.06
2022-12-29T11:59:39.551Z,98773.50
2022-12-29T12:02:21.389Z,98769.72
2022-12-29T12:05:01.859Z,98772.66
2022-12-29T12:07:43.678Z,98774.63
2022-12-29T12:10:21.895Z,98776.97
2022-12-29T12:12:53.045Z,98780.72
2022-12-29T12:15:22.707Z,98770.88
2022-12-29T12:18:02.899Z,98784.94
2022-12-29T12:20:50.417Z,98788.13
2022-12-29T12:23:48.030Z,98780.03
2022-12-29T12:26:22.088Z,98787.69
2022-12-29T12:28:59.999Z,98781.53
2022-12-29T12:31:47.754Z,98764.69
2022-12-29T12:34:26.764Z,98765.09
2022-12-29T12:37:05.833Z,98774.00
2022-12-29T12:39:40.363Z,98778.47
2022-12-29T12:42:29.855Z,98788.75
2022-12-29T12:45:06.197Z,98784.81
2022-12-29T12:47:58.497Z,98767.59
2022-12-29T12:50:40.569Z,98770.38
2022-12-29T12:53:31.562Z,98774.31
2022-12-29T12:56:19.802Z,98771.38
2022-12-29T12:59:11.789Z,98758.59
2022-12-29T13:02:01.757Z,98743.97
2022-12-29T13:04:55.145Z,98764.44
2022-12-29T13:07:43.318Z,98776.53
2022-12-29T13:10:41.782Z,98779.84
2022-12-29T13:13:27.156Z,98772.34
2022-12-29T13:16:25.507Z,98781.41
2022-12-29T13:18:51.853Z,98778.19
2022-12-29T13:21:30.060Z,98780.72
2022-12-29T13:24:15.076Z,98773.44
2022-12-29T13:27:13.657Z,98788.50
2022-12-29T13:30:20.659Z,98772.63
2022-12-29T13:32:55.897Z,98794.47
2022-12-29T13:35:36.552Z,98780.56
2022-12-29T13:38:38.312Z,98790.16
2022-12-29T13:41:08.966Z,98795.72
2022-12-29T13:43:40.688Z,98794.88
2022-12-29T13:46:14.965Z,98804.34
2022-12-29T13:48:50.335Z,98801.97
2022-12-29T13:51:21.422Z,98800.16
2022-12-29T13:54:23.123Z,98807.13
2022-12-29T13:57:15.357Z,98812.69
2022-12-29T13:59:52.057Z,98806.72
2022-12-29T14:02:39.220Z,98803.22
2022-12-29T14:05:25.863Z,98803.66
2022-12-29T14:08:03.897Z,98818.81
2022-12-29T14:10:36.303Z,98812.16
2022-12-29T14:13:05.652Z,98817.72
2022-12-29T14:15:32.499Z,98818.69
2022-12-29T14:18:18.675Z,98810.22
2022-12-29T14:20:57.068Z,98818.56
2022-12-29T14:23:35.463Z,98822.75
2022-12-29T14:26:08.003Z,98833.72
2022-12-29T14:28:38.974Z,98826.19
2022-12-29T14:31:17.449Z,98823.72
2022-12-29T14:34:09.523Z,98835.78
2022-12-29T14:36:36.918Z,98827.75
2022-12-29T14:39:04.391Z,98831.50
2022-12-29T14:41:39.997Z,98840.13
2022-12-29T14:44:20.386Z,98845.53
2022-12-29T14:47:00.106Z,98837.34
2022-12-29T14:49:31.957Z,98842.19
2022-12-29T14:52:31.765Z,98827.75
2022-12-29T14:55:24.575Z,98840.28
2022-12-29T14:57:58.128Z,98839.84
2022-12-29T15:00:30.510Z,98836.53
2022-12-29T15:03:12.636Z,98850.16
2022-12-29T15:05:46.123Z,98842.75
2022-12-29T15:08:14.094Z,98859.03
2022-12-29T15:10:52.287Z,98848.03
2022-12-29T15:13:23.830Z,98858.88
2022-12-29T15:15:50.486Z,98855.84
2022-12-29T15:18:30.978Z,98864.75
2022-12-29T15:21:00.589Z,98873.91
2022-12-29T15:23:27.997Z,98855.28
2022-12-29T15:25:59.956Z,98866.91
2022-12-29T15:28:27.699Z,98866.94
2022-12-29T15:31:03.583Z,98880.00
2022-12-29T15:33:30.577Z,98879.72
2022-12-29T15:36:03.050Z,98874.44
2022-12-29T15:38:38.575Z,98873.72
2022-12-29T15:41:20.140Z,98868.13
2022-12-29T15:43:54.584Z,98872.47
2022-12-29T15:46:21.079Z,98876.88
2022-12-29T15:48:47.648Z,98870.06
2022-12-29T15:51:29.322Z,98877.47
2022-12-29T15:53:56.145Z,98877.16
2022-12-29T15:56:22.619Z,98887.06
2022-12-29T15:58:52.203Z,98889.28
2022-12-29T16:01:33.045Z,98895.78
2022-12-29T16:04:01.663Z,98897.47
2022-12-29T16:06:35.930Z,98887.44
2022-12-29T16:09:08.122Z,98886.59
2022-12-29T16:11:41.188Z,98888.28
2022-12-29T16:14:17.084Z,98886.75
2022-12-29T16:16:45.459Z,98899.09
2022-12-29T16:19:26.225Z,98900.22
2022-12-29T16:21:53.075Z,98887.28
2022-12-29T16:24:23.990Z,98898.25
2022-12-29T16:26:57.095Z,98894.91
2022-12-29T16:29:23.958Z,98912.66
2022-12-29T16:32:00.834Z,98919.59
2022-12-29T16:34:32.181Z,98910.31
2022-12-29T16:37:02.403Z,98920.72
2022-12-29T16:39:32.529Z,98933.50
2022-12-29T16:41:59.216Z,98931.69
2022-12-29T16:44:30.966Z,98931.53
2022-12-29T16:47:04.282Z,98930.41
2022-12-29T16:49:33.561Z,98931.22
2022-12-29T16:52:00.111Z,98936.81
2022-12-29T16:54:36.065Z,98948.47
2022-12-29T16:57:03.368Z,98942.03
2022-12-29T16:59:43.426Z,98946.03
2022-12-29T17:02:16.246Z,98958.47
2022-12-29T17:04:43.109Z,98954.25
2022-12-29T17:07:20.886Z,98951.19
2022-12-29T17:09:47.403Z,98954.09
2022-12-29T17:12:34.525Z,98955.31
2022-12-29T17:15:13.843Z,98950.66
2022-12-29T17:17:45.918Z,98952.09
2022-12-29T17:20:19.626Z,98960.41
2022-12-29T17:22:46.790Z,98965.44
2022-12-29T17:25:15.324Z,98973.44
2022-12-29T17:27:48.547Z,98975.28
2022-12-29T17:30:17.408Z,98968.75
2022-12-29T17:32:49.629Z,98971.66
2022-12-29T17:35:17.453Z,98988.63
2022-12-29T17:37:44.063Z,98979.03
2022-12-29T17:40:32.036Z,98984.56
2022-12-29T17:42:59.859Z,98991.66
2022-12-29T17:45:32.572Z,98975.84
2022-12-29T17:48:01.542Z,98970.06
2022-12-29T17:50:30.520Z,98980.34
2022-12-29T17:53:03.814Z,98974.56
2022-12-29T17:55:37.298Z,98975.78
2022-12-29T17:58:19.657Z,98971.03
2022-12-29T18:00:48.433Z,98969.94
2022-12-29T18:03:17.308Z,98960.72
2022-12-29T18:05:44.539Z,98964.06
2022-12-29T18:08:12.110Z,98967.34
2022-12-29T18:10:39.807Z,98968.56
2022-12-29T18:13:06.271Z,98972.63
2022-12-29T18:15:36.317Z,98982.31
2022-12-29T18:18:02.872Z,98986.72
2022-12-29T18:20:30.754Z,98999.06
2022-12-29T18:22:58.948Z,99001.44
2022-12-29T18:25:45.972Z,98998.03
2022-12-29T18:28:12.321Z,99010.16
2022-12-29T18:30:38.779Z,99023.09
2022-12-29T18:33:05.147Z,99010.34
2022-12-29T18:35:46.217Z,99021.72
2022-12-29T18:38:12.504Z,99023.63
2022-12-29T18:40:38.867Z,99024.31
2022-12-29T18:43:05.931Z,99016.56
2022-12-29T18:45:34.119Z,99022.47
2022-12-29T18:48:00.878Z,99034.75
2022-12-29T18:50:27.872Z,99024.97
2022-12-29T18:52:58.555Z,99039.06
2022-12-29T18:55:29.343Z,99038.25
2022-12-29T18:57:56.085Z,99033.34
2022-12-29T19:00:23.803Z,99035.00
2022-12-29T19:02:52.155Z,99038.38
2022-12-29T19:05:30.485Z,99026.50
2022-12-29T19:07:56.916Z,99034.53
2022-12-29T19:10:25.411Z,99030.09
2022-12-29T19:12:52.353Z,99040.03
2022-12-29T19:15:29.442Z,99045.50
2022-12-29T19:18:32.902Z,99056.00
2022-12-29T19:20:46.204Z,99054.59
2022-12-29T19:23:18.894Z,99059.47
2022-12-29T19:25:46.127Z,99044.44
2022-12-29T19:28:24.457Z,99048.63
2022-12-29T19:30:52.917Z,99052.94
2022-12-29T19:33:21.512Z,99059.88
2022-12-29T19:35:48.526Z,99054.38
2022-12-29T19:38:15.052Z,99066.66
2022-12-29T19:40:43.715Z,99069.16
2022-12-29T19:43:12.075Z,99071.94
2022-12-29T19:45:40.464Z,99062.34
2022-12-29T19:48:09.055Z,99074.47
2022-12-29T19:50:35.489Z,99074.34
2022-12-29T19:53:05.376Z,99069.44
2022-12-29T19:55:32.452Z,99073.75
2022-12-29T19:57:59.026Z,99073.88
2022-12-29T20:00:25.459Z,99071.97
2022-12-29T20:02:51.943Z,99067.47
2022-12-29T20:05:19.152Z,99072.50
2022-12-29T20:07:45.647Z,99079.03
2022-12-29T20:10:11.989Z,99076.88
2022-12-29T20:12:38.578Z,99082.13
2022-12-29T20:15:07.158Z,99078.75
2022-12-29T20:18:10.667Z,99071.78
2022-12-29T20:20:19.957Z,99079.34
2022-12-29T20:22:46.293Z,99080.13
2022-12-29T20:25:43.574Z,99083.56
2022-12-29T20:27:58.924Z,99089.47
2022-12-29T20:30:25.256Z,99076.72
2022-12-29T20:32:51.642Z,99087.78
2022-12-29T20:35:18.007Z,99089.00
2022-12-29T20:37:44.299Z,99076.53
2022-12-29T20:40:10.688Z,99098.91
2022-12-29T20:42:37.031Z,99091.50
2022-12-29T20:45:03.872Z,99099.59
2022-12-29T20:47:30.190Z,99094.66
2022-12-29T20:49:56.575Z,99097.78
2022-12-29T20:52:22.913Z,99107.34
2022-12-29T20:54:49.295Z,99109.66
2022-12-29T20:57:15.610Z,99103.13
2022-12-29T20:59:42.805Z,99102.66
2022-12-29T21:02:21.082Z,99102.03
2022-12-29T21:05:22.145Z,99115.81
2022-12-29T21:07:34.012Z,99127.78
2022-12-29T21:10:00.330Z,99131.44
2022-12-29T21:12:26.640Z,99136.88
2022-12-29T21:14:52.939Z,99141.88
2022-12-29T21:17:19.280Z,99147.50
2022-12-29T21:19:45.671Z,99144.94
2022-12-29T21:22:12.021Z,99144.09
2022-12-29T21:24:38.674Z,99146.16
2022-12-29T21:27:05.881Z,99149.69
2022-12-29T21:29:32.201Z,99153.53
2022-12-29T21:32:06.360Z,99151.28
2022-12-29T21:34:34.335Z,99153.91
2022-12-29T21:37:00.740Z,99154.06
2022-12-29T21:39:27.543Z,99160.53
2022-12-29T21:41:59.713Z,99159.91
2022-12-29T21:44:45.283Z,99155.16
2022-12-29T21:47:11.642Z,99165.16
2022-12-29T21:49:37.990Z,99175.41
2022-12-29T21:52:04.470Z,99172.28
2022-12-29T21:54:49.786Z,99167.16
2022-12-29T21:57:36.752Z,99179.13
2022-12-29T22:00:26.543Z,99176.41
2022-12-29T22:03:20.165Z,99181.75
2022-12-29T22:06:07.342Z,99190.16
2022-12-29T22:08:52.185Z,99178.69
2022-12-29T22:11:37.121Z,99181.66
2022-12-29T22:14:04.024Z,99191.25
2022-12-29T22:16:30.415Z,99186.81
2022-12-29T22:18:56.828Z,99201.31
2022-12-29T22:21:23.211Z,99203.00
2022-12-29T22:23:49.515Z,99196.31
2022-12-29T22:26:16.363Z,99212.78
2022-12-29T22:28:45.950Z,99219.41
2022-12-29T22:31:30.006Z,99219.31
2022-12-29T22:33:58.550Z,99207.09
2022-12-29T22:36:26.653Z,99215.47
2022-12-29T22:38:53.328Z,99214.53
2022-12-29T22:41:19.881Z,99224.22
2022-12-29T22:43:46.237Z,99228.91
2022-12-29T22:46:12.794Z,99234.00
2022-12-29T22:48:39.519Z,99238.91
2022-12-29T22:51:06.041Z,99231.97
2022-12-29T22:53:32.489Z,99238.47
2022-12-29T22:56:07.898Z,99230.34
2022-12-29T22:58:34.796Z,99230.22
2022-12-29T23:01:01.547Z,99230.00
2022-12-29T23:03:28.224Z,99223.66
2022-12-29T23:06:02.910Z,99231.31
2022-12-29T23:08:32.288Z,99233.22
2022-12-29T23:10:58.940Z,99233.44
2022-12-29T23:13:25.266Z,99235.13
2022-12-29T23:15:51.966Z,99243.75
2022-12-29T23:18:18.359Z,99231.75
2022-12-29T23:20:45.181Z,99230.78
2022-12-29T23:23:11.658Z,99235.34
2022-12-29T23:25:39.042Z,99238.91
2022-12-29T23:28:07.743Z,99246.72
2022-12-29T23:30:34.377Z,99245.25
2022-12-29T23:33:00.710Z,99241.44
2022-12-29T23:35:27.032Z,99228.94
2022-12-29T23:37:53.327Z,99233.38
2022-12-29T23:40:19.640Z,99245.47
2022-12-29T23:42:46.120Z,99230.03
2022-12-29T23:45:13.219Z,99230.63
2022-12-29T23:47:39.521Z,99233.03
2022-12-29T23:50:06.252Z,99236.00
2022-12-29T23:52:34.855Z,99240.75
2022-12-29T23:55:01.183Z,99242.44
2022-12-29T23:57:27.483Z,99246.88
2022-12-29T23:59:53.780Z,99241.63
